Lisa — WDE2705 — position and weather

sailwx.info

Track history (hours):
 
Tides and Currents Weather Stations Pressure Air Temp Water Temp Dewpoint Dewpoint Depression Visibility Wind Speed Wind Dir Waves Ship Positions

Lisa

Owner: Broussard Brothers, Inc., Abbeville, LA. More information available from US FCC via Universal Licensing System and Coast Guard Vessel Documentation Center.

Last reported at 2017-Nov-18 01:29 UTC. Time now 2017-Nov-18 08:40 UTC.
Position N 29°47' W 092°11'.

Length 21 m.

MMSI: 367328540.

Date/timePositionNaut miles runAvg speedWind from/ knotsBaromVisibWave heightAir tempDewpointWater temp
2017-Nov-18 01:29N 29°47' W 092°11'0 0.2
2017-Nov-18 01:00N 29°47' W 092°11'1 1.7
2017-Nov-18 00:31N 29°47' W 092°10'1 1.8
2017-Nov-18 00:01N 29°47' W 092°11'0 0.0
2017-Nov-17 23:27N 29°47' W 092°11'1 2.0
2017-Nov-17 23:01N 29°47' W 092°10'1 1.7
2017-Nov-17 22:30N 29°47' W 092°11'1 1.7
2017-Nov-17 22:00N 29°47' W 092°10'2 3.6
2017-Nov-17 21:30N 29°48' W 092°08'2 3.7
2017-Nov-17 21:00N 29°49' W 092°08'3 5.1
2017-Nov-17 20:30N 29°47' W 092°09'2 0.1
2017-Nov-16 23:04N 29°47' W 092°11'0 0.0
2017-Nov-16 23:00N 29°47' W 092°11'1 1.8
2017-Nov-16 22:30N 29°47' W 092°10'0 0.0
2017-Nov-16 22:00N 29°47' W 092°10'2 4.5
2017-Nov-16 21:30N 29°47' W 092°08'5 9.1
2017-Nov-16 21:00N 29°49' W 092°03'4 0.9
2017-Nov-16 16:16N 29°50' W 091°58'2 8.4
2017-Nov-16 16:00N 29°50' W 092°00'4 8.7
2017-Nov-16 15:30N 29°48' W 092°05'4 8.3
2017-Nov-16 15:00N 29°47' W 092°10'1 1.2
2017-Nov-16 14:30N 29°47' W 092°10'0 0.2
2017-Nov-16 14:00N 29°47' W 092°10'0 0.0
2017-Nov-16 13:30N 29°47' W 092°10'0 0.0
2017-Nov-16 13:00N 29°47' W 092°10'0 0.0
2017-Nov-16 12:31N 29°47' W 092°10'0 0.3
2017-Nov-16 12:00N 29°47' W 092°10'1 0.0
2017-Nov-14 22:36N 29°47' W 092°11'0 0.1
2017-Nov-14 22:30N 29°47' W 092°11'0 0.0
2017-Nov-14 22:00N 29°47' W 092°11'0 0.0
2017-Nov-14 21:30N 29°47' W 092°11'0 0.0
2017-Nov-14 21:00N 29°47' W 092°11'0 0.0
2017-Nov-14 20:30N 29°47' W 092°11'0 0.0
2017-Nov-14 20:00N 29°47' W 092°11'2 3.7
2017-Nov-14 19:30N 29°47' W 092°09'1 1.6
2017-Nov-14 19:00N 29°48' W 092°09'2 0.3
2017-Nov-14 10:40N 29°47' W 092°11'1 3.7
2017-Nov-14 10:30N 29°47' W 092°12'1 1.2
2017-Nov-14 10:00N 29°47' W 092°13'3 6.4
2017-Nov-14 09:29N 29°49' W 092°16'5 7.2
2017-Nov-14 08:49N 29°51' W 092°21'51 7.2
2017-Nov-14 01:42N 30°05' W 093°18'0 0.7
2017-Nov-14 01:27N 30°05' W 093°18'1 1.1
2017-Nov-14 00:49N 30°06' W 093°18'  
2017-Nov-08 08:40N 29°37' W 092°17'1 7.5
2017-Nov-08 08:30N 29°38' W 092°16'4 7.6
2017-Nov-08 08:01N 29°42' W 092°15'3 6.4
2017-Nov-08 07:31N 29°44' W 092°14'3 6.9
2017-Nov-08 07:00N 29°47' W 092°10'1 1.6
2017-Nov-08 06:30N 29°47' W 092°11'  
Track history (hours):
 
Tides and Currents Weather Stations Pressure Air Temp Water Temp Dewpoint Dewpoint Depression Visibility Wind Speed Wind Dir Waves Ship Positions

Lisa

Owner: Broussard Brothers, Inc., Abbeville, LA. More information available from US FCC via Universal Licensing System and Coast Guard Vessel Documentation Center.

Last reported at 2017-Nov-18 01:29 UTC. Time now 2017-Nov-18 08:40 UTC.
Position N 29°47' W 092°11'.

Length 21 m.

MMSI: 367328540.

Date/timePositionNaut miles runAvg speedWind from/ knotsBaromVisibWave heightAir tempDewpointWater temp
2017-Nov-18 01:29N 29°47' W 092°11'0 0.2
2017-Nov-18 01:00N 29°47' W 092°11'1 1.7
2017-Nov-18 00:31N 29°47' W 092°10'1 1.8
2017-Nov-18 00:01N 29°47' W 092°11'0 0.0
2017-Nov-17 23:27N 29°47' W 092°11'1 2.0
2017-Nov-17 23:01N 29°47' W 092°10'1 1.7
2017-Nov-17 22:30N 29°47' W 092°11'1 1.7
2017-Nov-17 22:00N 29°47' W 092°10'2 3.6
2017-Nov-17 21:30N 29°48' W 092°08'2 3.7
2017-Nov-17 21:00N 29°49' W 092°08'3 5.1
2017-Nov-17 20:30N 29°47' W 092°09'2 0.1
2017-Nov-16 23:04N 29°47' W 092°11'0 0.0
2017-Nov-16 23:00N 29°47' W 092°11'1 1.8
2017-Nov-16 22:30N 29°47' W 092°10'0 0.0
2017-Nov-16 22:00N 29°47' W 092°10'2 4.5
2017-Nov-16 21:30N 29°47' W 092°08'5 9.1
2017-Nov-16 21:00N 29°49' W 092°03'4 0.9
2017-Nov-16 16:16N 29°50' W 091°58'2 8.4
2017-Nov-16 16:00N 29°50' W 092°00'4 8.7
2017-Nov-16 15:30N 29°48' W 092°05'4 8.3
2017-Nov-16 15:00N 29°47' W 092°10'1 1.2
2017-Nov-16 14:30N 29°47' W 092°10'0 0.2
2017-Nov-16 14:00N 29°47' W 092°10'0 0.0
2017-Nov-16 13:30N 29°47' W 092°10'0 0.0
2017-Nov-16 13:00N 29°47' W 092°10'0 0.0
2017-Nov-16 12:31N 29°47' W 092°10'0 0.3
2017-Nov-16 12:00N 29°47' W 092°10'1 0.0
2017-Nov-14 22:36N 29°47' W 092°11'0 0.1
2017-Nov-14 22:30N 29°47' W 092°11'0 0.0
2017-Nov-14 22:00N 29°47' W 092°11'0 0.0
2017-Nov-14 21:30N 29°47' W 092°11'0 0.0
2017-Nov-14 21:00N 29°47' W 092°11'0 0.0
2017-Nov-14 20:30N 29°47' W 092°11'0 0.0
2017-Nov-14 20:00N 29°47' W 092°11'2 3.7
2017-Nov-14 19:30N 29°47' W 092°09'1 1.6
2017-Nov-14 19:00N 29°48' W 092°09'2 0.3
2017-Nov-14 10:40N 29°47' W 092°11'1 3.7
2017-Nov-14 10:30N 29°47' W 092°12'1 1.2
2017-Nov-14 10:00N 29°47' W 092°13'3 6.4
2017-Nov-14 09:29N 29°49' W 092°16'5 7.2
2017-Nov-14 08:49N 29°51' W 092°21'51 7.2
2017-Nov-14 01:42N 30°05' W 093°18'0 0.7
2017-Nov-14 01:27N 30°05' W 093°18'1 1.1
2017-Nov-14 00:49N 30°06' W 093°18'  
2017-Nov-08 08:40N 29°37' W 092°17'1 7.5
2017-Nov-08 08:30N 29°38' W 092°16'4 7.6
2017-Nov-08 08:01N 29°42' W 092°15'3 6.4
2017-Nov-08 07:31N 29°44' W 092°14'3 6.9
2017-Nov-08 07:00N 29°47' W 092°10'1 1.6
2017-Nov-08 06:30N 29°47' W 092°11'  

Dump ship's entire track history